Time;durP1;ratioP1;P1;durP2;ratioP2;P2;SDS_P1;SDS_P2;PMS_P1;PMS_P2;Temp;Humidity;BMP_temperature;BMP_pressure;BME280_temperature;BME280_humidity;BME280_pressure;Samples;Min_cycle;Max_cycle;Signal;HPM_P1;HPM_P2
2024/03/10 00:01:56;;;;;;;35.85;19.42;;;;;;;3.58;100.00;100508.09;6060157;23;20017;-74
2024/03/10 00:04:22;;;;;;;34.50;19.08;;;;;;;3.56;100.00;100509.16;6035627;23;20145;-73
2024/03/10 00:06:52;;;;;;;32.63;17.15;;;;;;;3.54;100.00;100502.47;6060994;23;20021;-73
2024/03/10 00:09:18;;;;;;;33.15;18.35;;;;;;;3.52;100.00;100500.06;6035214;23;20018;-73
2024/03/10 00:11:44;;;;;;;35.17;18.77;;;;;;;3.48;100.00;100498.91;6059794;23;20014;-73
2024/03/10 00:14:10;;;;;;;37.83;18.25;;;;;;;3.43;100.00;100493.47;6059365;23;20104;-73
2024/03/10 00:16:37;;;;;;;34.95;19.05;;;;;;;3.40;100.00;100493.94;6059800;23;20903;-73
2024/03/10 00:19:13;;;;;;;35.53;18.02;;;;;;;3.43;100.00;100495.31;6059905;23;20018;-72
2024/03/10 00:21:39;;;;;;;33.67;17.88;;;;;;;3.38;100.00;100487.25;6011875;23;20205;-74
2024/03/10 00:24:09;;;;;;;34.92;19.02;;;;;;;3.37;100.00;100485.63;6059832;23;20069;-74
2024/03/10 00:26:36;;;;;;;38.83;20.92;;;;;;;3.30;100.00;100477.81;6082680;23;20140;-74
2024/03/10 00:29:02;;;;;;;38.22;19.42;;;;;;;3.32;100.00;100486.34;6059400;23;20824;-74
2024/03/10 00:31:29;;;;;;;35.97;19.27;;;;;;;3.29;100.00;100484.13;6058301;23;20078;-74
2024/03/10 00:33:56;;;;;;;34.08;18.50;;;;;;;3.31;100.00;100481.25;6060157;23;20049;-73
2024/03/10 00:36:23;;;;;;;33.92;18.52;;;;;;;3.26;100.00;100479.31;6056892;23;20029;-73
2024/03/10 00:38:53;;;;;;;37.25;18.90;;;;;;;3.28;100.00;100478.03;6085263;23;20109;-75
2024/03/10 00:41:19;;;;;;;35.53;17.60;;;;;;;3.24;100.00;100476.88;6035603;23;20015;-75
2024/03/10 00:43:46;;;;;;;;;;;;;;;3.28;100.00;100474.59;6012823;23;20021;-73
2024/03/10 00:46:22;;;;;;;32.35;17.65;;;;;;;3.25;100.00;100464.44;6035858;23;19920;-74
2024/03/10 00:48:49;;;;;;;34.83;18.15;;;;;;;3.25;100.00;100477.66;6012238;23;20053;-74
2024/03/10 00:51:16;;;;;;;38.17;18.20;;;;;;;3.24;100.00;100479.50;6061981;23;20010;-74
2024/03/10 00:53:42;;;;;;;34.10;17.90;;;;;;;3.22;100.00;100478.13;6058209;23;20014;-73
2024/03/10 00:56:10;;;;;;;36.00;18.67;;;;;;;3.21;100.00;100479.97;6036407;23;20418;-73
2024/03/10 00:58:41;;;;;;;35.70;18.48;;;;;;;3.19;100.00;100473.31;6036207;23;20029;-74
2024/03/10 01:01:10;;;;;;;36.50;17.80;;;;;;;3.15;100.00;100472.13;6085001;23;20014;-74
2024/03/10 01:03:43;;;;;;;31.45;17.17;;;;;;;3.13;100.00;100474.22;6035015;23;20077;-74
2024/03/10 01:06:09;;;;;;;31.42;17.38;;;;;;;3.11;100.00;100470.97;6060625;23;20018;-72
2024/03/10 01:08:36;;;;;;;36.67;20.02;;;;;;;3.11;100.00;100466.47;6059713;23;20019;-73
2024/03/10 01:11:06;;;;;;;35.35;19.33;;;;;;;3.06;100.00;100460.28;6084866;23;20014;-74
2024/03/10 01:13:32;;;;;;;33.83;17.75;;;;;;;3.07;100.00;100470.63;6058226;23;20852;-75
2024/03/10 01:16:02;;;;;;;33.90;17.60;;;;;;;3.07;100.00;100465.34;6058770;23;20018;-73
2024/03/10 01:18:29;;;;;;;35.15;18.02;;;;;;;3.09;100.00;100463.25;6031850;23;20093;-74
2024/03/10 01:20:55;;;;;;;;;;;;;;;3.12;100.00;100467.31;6058541;23;20444;-73
2024/03/10 01:23:22;;;;;;;35.67;17.38;;;;;;;3.10;100.00;100464.06;6033367;23;20318;-73
2024/03/10 01:25:48;;;;;;;33.75;17.83;;;;;;;3.03;100.00;100458.06;6057341;23;20480;-75
2024/03/10 01:28:17;;;;;;;35.60;19.08;;;;;;;3.08;100.00;100458.22;6033712;23;20019;-72
2024/03/10 01:30:58;;;;;;;38.45;18.25;;;;;;;3.00;100.00;100457.50;6082882;23;20014;-73
2024/03/10 01:33:25;;;;;;;38.42;18.88;;;;;;;3.01;100.00;100467.03;6057473;23;20022;-75
2024/03/10 01:35:51;;;;;;;35.65;18.05;;;;;;;2.99;100.00;100463.81;6059025;23;20026;-73
2024/03/10 01:38:18;;;;;;;;;;;;;;;3.00;100.00;100465.44;6057826;23;20026;-72
2024/03/10 01:40:46;;;;;;;36.70;19.05;;;;;;;2.97;100.00;100471.16;6035134;23;20716;-74
2024/03/10 01:43:15;;;;;;;36.58;18.52;;;;;;;2.95;100.00;100462.66;6058242;23;20030;-74
2024/03/10 01:45:41;;;;;;;38.08;21.20;;;;;;;2.92;100.00;100462.31;6057738;23;20029;-73
2024/03/10 01:48:13;;;;;;;33.33;17.02;;;;;;;2.90;100.00;100459.88;6058829;23;20017;-74
2024/03/10 01:50:39;;;;;;;38.30;20.15;;;;;;;2.93;100.00;100471.84;6035522;23;20021;-73
2024/03/10 01:53:09;;;;;;;36.20;19.48;;;;;;;2.88;100.00;100467.25;6057446;23;20018;-74
2024/03/10 01:55:37;;;;;;;34.65;17.77;;;;;;;2.88;100.00;100461.94;6056433;23;20888;-75
2024/03/10 01:58:04;;;;;;;38.85;19.98;;;;;;;2.89;100.00;100479.44;6034284;23;20101;-74
2024/03/10 02:00:32;;;;;;;33.88;19.00;;;;;;;2.89;100.00;100466.19;6059231;23;20022;-72
2024/03/10 02:02:58;;;;;;;;;;;;;;;2.85;100.00;100477.47;6084097;23;20353;-75
2024/03/10 02:05:24;;;;;;;39.10;17.92;;;;;;;2.83;100.00;100461.81;6011615;23;20307;-71
2024/03/10 02:07:56;;;;;;;36.92;19.73;;;;;;;2.78;100.00;100450.28;6057782;23;20091;-77
2024/03/10 02:10:23;;;;;;;35.72;17.95;;;;;;;2.79;100.00;100462.50;6012058;23;20522;-75
2024/03/10 02:12:53;;;;;;;37.95;18.88;;;;;;;2.71;100.00;100455.69;6034149;23;20091;-73
2024/03/10 02:15:32;;;;;;;36.95;20.13;;;;;;;2.75;100.00;100448.91;6058984;23;20766;-74
2024/03/10 02:17:59;;;;;;;35.53;17.92;;;;;;;2.74;100.00;100449.94;6057279;23;20089;-75
2024/03/10 02:20:52;;;;;;;37.88;18.67;;;;;;;2.70;100.00;100439.00;6057769;23;20018;-74
2024/03/10 02:23:20;;;;;;;36.50;18.30;;;;;;;2.74;100.00;100452.59;6034775;23;20029;-74
2024/03/10 02:25:48;;;;;;;33.65;18.20;;;;;;;2.74;100.00;100447.31;6057465;23;20018;-73
2024/03/10 02:28:34;;;;;;;36.60;19.83;;;;;;;2.71;100.00;100447.75;6009641;23;20014;-74
2024/03/10 02:47:12;;;;;;;34.03;18.77;;;;;;;2.69;100.00;100447.16;6036134;23;20011;-75
2024/03/10 02:47:46;;;;;;;35.55;19.33;;;;;;;2.64;100.00;100444.38;6057645;23;20018;-72
2024/03/10 02:50:12;;;;;;;38.25;20.23;;;;;;;2.65;100.00;100435.44;6086223;23;20014;-74
2024/03/10 02:52:38;;;;;;;33.67;18.63;;;;;;;2.62;100.00;100446.44;6085690;23;20046;-73
2024/03/10 02:55:06;;;;;;;35.85;18.23;;;;;;;2.59;100.00;100441.63;6012292;23;20465;-72
2024/03/10 02:57:33;;;;;;;37.17;18.20;;;;;;;2.59;100.00;100447.72;6060274;23;20452;-74
2024/03/10 02:59:59;;;;;;;34.58;17.85;;;;;;;2.57;100.00;100448.94;6013474;23;20101;-75
2024/03/10 03:02:29;;;;;;;35.70;18.02;;;;;;;2.54;100.00;100450.22;6060666;23;20018;-74
2024/03/10 03:04:55;;;;;;;35.75;18.33;;;;;;;2.55;100.00;100443.09;6039507;23;20883;-72
2024/03/10 03:07:20;;;;;;;34.58;17.83;;;;;;;2.54;100.00;100441.47;6088261;23;20037;-72
2024/03/10 03:09:47;;;;;;;40.15;20.98;;;;;;;2.52;100.00;100436.41;6036769;23;20054;-72
2024/03/10 03:12:38;;;;;;;36.60;19.40;;;;;;;2.51;100.00;100440.09;6065169;23;20751;-73
2024/03/10 03:15:04;;;;;;;36.45;17.83;;;;;;;2.46;100.00;100432.84;6033627;23;20018;-76
2024/03/10 03:17:30;;;;;;;32.22;16.67;;;;;;;2.46;100.00;100437.31;6084448;23;20089;-75
2024/03/10 03:19:59;;;;;;;37.22;18.02;;;;;;;2.47;100.00;100437.09;6085665;23;20014;-73
2024/03/10 03:22:30;;;;;;;35.92;18.33;;;;;;;2.44;100.00;100431.44;6036677;23;20019;-74
2024/03/10 03:24:56;;;;;;;36.88;19.77;;;;;;;2.43;100.00;100430.63;6057310;23;20165;-74
2024/03/10 03:27:22;;;;;;;38.55;18.77;;;;;;;2.40;100.00;100433.72;6011479;23;20304;-73
2024/03/10 03:29:48;;;;;;;35.50;17.83;;;;;;;2.37;100.00;100428.91;6060038;23;20482;-73
2024/03/10 03:32:15;;;;;;;39.85;19.70;;;;;;;2.36;100.00;100432.53;6085872;23;20014;-71
2024/03/10 03:34:42;;;;;;;36.97;18.67;;;;;;;2.37;100.00;100423.59;6058795;23;20093;-72
2024/03/10 03:37:12;;;;;;;40.05;20.77;;;;;;;2.38;100.00;100425.22;6058688;23;20125;-74
2024/03/10 03:39:38;;;;;;;36.22;19.05;;;;;;;2.38;100.00;100419.94;6059202;23;20018;-73
2024/03/10 03:42:04;;;;;;;38.35;18.95;;;;;;;2.37;100.00;100428.06;6059302;23;20670;-75
2024/03/10 03:44:30;;;;;;;34.22;17.60;;;;;;;2.35;100.00;100430.13;6059020;23;20078;-72
2024/03/10 03:46:55;;;;;;;34.83;17.75;;;;;;;2.36;100.00;100443.09;6084240;23;20014;-75
2024/03/10 03:49:21;;;;;;;32.38;17.00;;;;;;;2.31;100.00;100437.72;6058754;23;20022;-74
2024/03/10 03:51:47;;;;;;;35.75;18.90;;;;;;;2.26;100.00;100432.28;6059710;23;20588;-75
2024/03/10 03:54:12;;;;;;;37.17;19.33;;;;;;;2.26;100.00;100431.47;6058718;23;20743;-73
2024/03/10 03:56:39;;;;;;;34.83;17.58;;;;;;;2.26;100.00;100431.47;6057084;23;20338;-73
2024/03/10 03:59:04;;;;;;;34.22;18.75;;;;;;;2.21;100.00;100429.47;6061038;23;20025;-71
2024/03/10 04:01:30;;;;;;;35.80;17.45;;;;;;;2.22;100.00;100431.09;6084557;23;20018;-73
2024/03/10 04:03:57;;;;;;;35.78;17.33;;;;;;;2.19;100.00;100421.78;6013217;23;20089;-74
2024/03/10 04:06:25;;;;;;;36.78;18.50;;;;;;;2.16;100.00;100437.25;6085638;23;20175;-75
2024/03/10 04:08:53;;;;;;;41.30;20.02;;;;;;;2.17;100.00;100423.06;6013174;23;20056;-73
2024/03/10 04:11:22;;;;;;;35.00;18.02;;;;;;;2.19;100.00;100429.72;6036900;23;20025;-73
2024/03/10 04:13:47;;;;;;;38.88;20.55;;;;;;;2.22;100.00;100425.00;6085823;23;20014;-74
2024/03/10 04:16:13;;;;;;;43.13;20.13;;;;;;;2.22;100.00;100428.44;6085335;23;20021;-76
2024/03/10 04:18:49;;;;;;;40.83;19.92;;;;;;;2.24;100.00;100417.69;6060009;23;20018;-74
2024/03/10 04:21:28;;;;;;;;;;;;;;;2.16;100.00;100422.22;6018031;23;20010;-74
2024/03/10 04:24:14;;;;;;;36.70;17.10;;;;;;;2.11;100.00;100413.38;6033545;23;19921;-75
2024/03/10 04:27:13;;;;;;;34.83;17.25;;;;;;;2.03;100.00;100406.56;6060440;23;20022;-74
2024/03/10 04:29:52;;;;;;;36.00;20.05;;;;;;;2.07;100.00;100423.56;6054589;23;20029;-73
2024/03/10 04:33:14;;;;;;;37.88;17.85;;;;;;;2.09;100.00;100428.59;6021549;23;20025;-75
2024/03/10 04:35:47;;;;;;;35.97;18.50;;;;;;;2.04;100.00;100423.19;6063586;23;20041;-74
2024/03/10 04:39:02;;;;;;;35.70;18.38;;;;;;;2.08;100.00;100434.91;6064347;23;20010;-72
2024/03/10 04:41:33;;;;;;;38.92;20.60;;;;;;;2.05;100.00;100430.09;6038057;23;20021;-76
2024/03/10 04:44:40;;;;;;;39.42;20.02;;;;;;;2.10;100.00;100432.84;6018511;23;20024;-74
2024/03/10 04:47:18;;;;;;;37.90;19.20;;;;;;;2.10;100.00;100422.28;6016307;23;20018;-74
2024/03/10 04:49:58;;;;;;;41.97;21.13;;;;;;;2.10;100.00;100417.84;6038271;23;20520;-75
2024/03/10 04:52:36;;;;;;;41.55;19.45;;;;;;;2.06;100.00;100395.53;6014780;23;20112;-76
2024/03/10 04:58:50;;;;;;;39.63;17.98;;;;;;;2.09;100.00;100402.19;6045231;23;20028;-73
2024/03/10 05:01:29;;;;;;;39.80;20.30;;;;;;;2.07;100.00;100406.91;6061164;23;20018;-75
2024/03/10 05:04:01;;;;;;;41.63;19.00;;;;;;;2.08;100.00;100408.50;6039325;23;20081;-74
2024/03/10 05:06:55;;;;;;;40.85;18.70;;;;;;;2.08;100.00;100409.31;6038274;23;20018;-75
2024/03/10 05:10:05;;;;;;;36.35;18.85;;;;;;;2.16;100.00;100406.38;6039041;23;20014;-74
2024/03/10 05:12:38;;;;;;;37.22;18.77;;;;;;;2.13;100.00;100390.16;6027063;23;20041;-74
2024/03/10 05:15:31;;;;;;;40.60;18.60;;;;;;;2.17;100.00;100401.91;6015044;23;20423;-74
2024/03/10 05:18:32;;;;;;;36.45;19.88;;;;;;;2.18;100.00;100403.53;6012574;23;20018;-74
2024/03/10 05:21:07;;;;;;;38.75;18.42;;;;;;;2.16;100.00;100410.84;6015254;23;20089;-73
2024/03/10 05:23:34;;;;;;;36.47;18.45;;;;;;;2.16;100.00;100398.44;6036950;23;20054;-74
2024/03/10 05:26:00;;;;;;;40.83;20.17;;;;;;;2.13;100.00;100390.97;6061337;23;20029;-73
2024/03/10 05:28:26;;;;;;;39.78;18.85;;;;;;;2.16;100.00;100405.56;6060254;23;20021;-72
2024/03/10 05:30:52;;;;;;;39.42;19.95;;;;;;;2.19;100.00;100410.41;6061383;23;20053;-75
2024/03/10 05:33:21;;;;;;;38.80;20.13;;;;;;;2.20;100.00;100409.38;6060753;23;20085;-74
2024/03/10 05:38:41;;;;;;;37.05;18.73;;;;;;;2.21;100.00;100410.19;6087872;23;20014;-73
2024/03/10 05:41:07;;;;;;;38.30;18.42;;;;;;;2.24;100.00;100415.03;6041317;23;20148;-73
2024/03/10 05:43:33;;;;;;;39.78;19.08;;;;;;;2.22;100.00;100414.44;6061337;23;20014;-72
2024/03/10 05:46:00;;;;;;;41.70;18.83;;;;;;;2.23;100.00;100408.13;6088534;23;20025;-74
2024/03/10 05:51:45;;;;;;;39.40;18.50;;;;;;;2.22;100.00;100403.88;6060803;23;20014;-73
2024/03/10 05:54:13;;;;;;;40.72;18.90;;;;;;;2.17;100.00;100401.91;6038346;23;20085;-74
2024/03/10 05:56:39;;;;;;;40.22;19.02;;;;;;;2.19;100.00;100402.50;6060981;23;20021;-74
2024/03/10 05:59:05;;;;;;;40.28;19.30;;;;;;;2.19;100.00;100402.50;6035234;23;20018;-73
2024/03/10 06:01:30;;;;;;;39.78;19.30;;;;;;;2.24;100.00;100404.47;6060558;23;20081;-72
2024/03/10 06:03:56;;;;;;;38.15;18.33;;;;;;;2.24;100.00;100402.63;6085944;23;20026;-71
2024/03/10 06:06:22;;;;;;;44.17;20.55;;;;;;;2.26;100.00;100411.13;6062373;23;20014;-74
2024/03/10 06:08:47;;;;;;;42.10;19.73;;;;;;;2.27;100.00;100414.59;6061195;23;20014;-72
2024/03/10 06:11:13;;;;;;;36.50;18.40;;;;;;;2.27;100.00;100412.75;6037653;23;20021;-71
2024/03/10 06:13:39;;;;;;;39.33;19.15;;;;;;;2.30;100.00;100407.00;6042762;23;20018;-73
2024/03/10 06:16:07;;;;;;;38.50;18.25;;;;;;;2.31;100.00;100403.34;6017069;23;20053;-71
2024/03/10 06:25:22;;;;;;;40.75;21.75;;;;;;;2.31;100.00;100408.63;6063305;23;20014;-72
2024/03/10 06:26:52;;;;;;;39.45;20.38;;;;;;;2.41;100.00;100393.03;6059442;23;20352;-73
2024/03/10 06:29:18;;;;;;;41.33;20.45;;;;;;;2.46;100.00;100398.47;6057520;23;20018;-72
2024/03/10 06:31:43;;;;;;;;;;;;;;;2.52;100.00;100393.31;6061984;23;20093;-72
2024/03/10 06:34:10;;;;;;;39.50;20.70;;;;;;;2.56;100.00;100392.63;6063920;23;19949;-73
2024/03/10 06:36:36;;;;;;;39.67;19.67;;;;;;;2.61;100.00;100391.97;6040902;23;20026;-73
2024/03/10 06:39:03;;;;;;;39.13;20.13;;;;;;;2.65;100.00;100388.66;6085917;23;20025;-73
2024/03/10 06:41:29;;;;;;;41.15;19.20;;;;;;;2.70;100.00;100401.97;6062859;23;20014;-72
2024/03/10 06:43:55;;;;;;;40.80;20.80;;;;;;;2.77;100.00;100407.16;6062767;23;20025;-73
2024/03/10 06:46:21;;;;;;;40.10;19.95;;;;;;;2.84;100.00;100407.88;6038023;23;20029;-73
2024/03/10 06:48:46;;;;;;;38.47;19.38;;;;;;;2.90;100.00;100404.31;6038277;23;20026;-74
2024/03/10 06:51:12;;;;;;;39.05;19.23;;;;;;;2.95;100.00;100399.16;6088799;23;20033;-71
2024/03/10 06:53:38;;;;;;;42.20;20.48;;;;;;;3.01;100.00;100398.25;6042459;23;20062;-74
2024/03/10 06:56:04;;;;;;;40.20;19.65;;;;;;;3.07;100.00;100401.84;6063702;23;20384;-71
2024/03/10 06:58:31;;;;;;;43.22;21.80;;;;;;;3.11;100.00;100394.25;6089090;23;20022;-72
2024/03/10 07:00:58;;;;;;;37.45;20.98;;;;;;;3.21;100.00;100402.44;6087927;23;20089;-71
2024/03/10 07:03:24;;;;;;;37.63;19.20;;;;;;;3.25;100.00;100395.63;6037089;23;20393;-73
2024/03/10 07:05:49;;;;;;;36.75;18.48;;;;;;;3.32;100.00;100399.00;6060038;23;20396;-72
2024/03/10 07:08:16;;;;;;;35.95;18.20;;;;;;;3.39;100.00;100389.09;6035820;23;20018;-74
2024/03/10 07:10:41;;;;;;;;;;;;;;;3.47;100.00;100396.69;6088520;23;20353;-72
2024/03/10 07:13:13;;;;;;;42.63;20.02;;;;;;;3.54;100.00;100388.63;6060679;23;19917;-74
2024/03/10 07:15:39;;;;;;;40.90;19.58;;;;;;;3.60;100.00;100389.53;6062469;23;20026;-72
2024/03/10 07:18:06;;;;;;;;;;;;;;;3.65;100.00;100385.13;6085804;23;20501;-72
2024/03/10 07:20:31;;;;;;;42.10;18.15;;;;;;;3.72;100.00;100387.66;6062351;23;19953;-71
2024/03/10 07:22:57;;;;;;;39.13;19.33;;;;;;;3.78;100.00;100389.38;6058030;23;20025;-71
2024/03/10 07:25:25;;;;;;;38.33;19.58;;;;;;;3.86;100.00;100391.66;6035110;23;20528;-73
2024/03/10 07:27:51;;;;;;;37.70;18.70;;;;;;;3.94;100.00;100375.44;6058784;23;20093;-72
2024/03/10 07:30:18;;;;;;;;;;;;;;;4.02;100.00;100372.41;6087719;23;20022;-73
2024/03/10 07:32:45;;;;;;;39.58;19.17;;;;;;;4.10;100.00;100379.97;6060780;23;19920;-74
2024/03/10 07:35:12;;;;;;;37.67;18.63;;;;;;;4.19;100.00;100371.66;6086053;23;20077;-74
2024/03/10 07:37:38;;;;;;;34.88;19.15;;;;;;;4.28;100.00;100378.19;6063009;23;20596;-72
2024/03/10 07:40:16;;;;;;;38.03;19.70;;;;;;;4.38;100.00;100373.06;6088502;23;20014;-72
2024/03/10 07:42:46;;;;;;;36.13;19.73;;;;;;;4.53;100.00;100378.63;6038588;23;20022;-73
2024/03/10 07:45:13;;;;;;;35.38;19.70;;;;;;;4.66;100.00;100382.84;6062217;23;20057;-74
2024/03/10 07:47:41;;;;;;;;;;;;;;;4.75;100.00;100380.63;6039575;23;20069;-73
2024/03/10 07:50:08;;;;;;;31.42;17.45;;;;;;;4.84;100.00;100373.88;6063454;23;19913;-74
2024/03/10 07:52:35;;;;;;;38.38;20.33;;;;;;;4.94;100.00;100374.03;6015431;23;20022;-72
2024/03/10 07:55:04;;;;;;;36.92;19.90;;;;;;;5.03;100.00;100363.84;6041552;23;20504;-74
2024/03/10 07:57:33;;;;;;;34.78;19.40;;;;;;;5.10;100.00;100373.22;6066203;23;20006;-72
2024/03/10 08:00:00;;;;;;;37.28;20.70;;;;;;;5.20;100.00;100365.41;6063617;23;20014;-73
2024/03/10 08:02:26;;;;;;;37.30;21.35;;;;;;;5.30;100.00;100371.94;6059959;23;20021;-74
2024/03/10 08:04:52;;;;;;;37.60;21.73;;;;;;;5.38;100.00;100368.88;6038114;23;20026;-73
2024/03/10 08:07:18;;;;;;;;;;;;;;;5.47;100.00;100370.03;6087468;23;20014;-75
2024/03/10 08:09:44;;;;;;;35.20;17.90;;;;;;;5.55;100.00;100374.94;6066577;23;19962;-74
2024/03/10 08:12:11;;;;;;;36.83;20.17;;;;;;;5.64;100.00;100370.03;6064397;23;20002;-74
2024/03/10 08:14:39;;;;;;;34.83;19.08;;;;;;;5.72;100.00;100380.22;6064150;23;20085;-75
2024/03/10 08:17:05;;;;;;;36.70;20.85;;;;;;;5.81;100.00;100388.56;6038571;23;20344;-73
2024/03/10 08:19:32;;;;;;;32.28;17.63;;;;;;;5.92;100.00;100383.16;6064422;23;20448;-73
2024/03/10 08:21:58;;;;;;;32.08;18.67;;;;;;;6.03;100.00;100381.44;6087922;23;20095;-75
2024/03/10 08:24:25;;;;;;;34.80;20.35;;;;;;;6.15;100.00;100387.41;6061658;23;20037;-72
2024/03/10 08:26:51;;;;;;;36.13;19.55;;;;;;;6.21;100.00;100378.44;6037450;23;20026;-73
2024/03/10 08:29:17;;;;;;;35.90;20.88;;;;;;;6.27;100.00;100382.75;6061043;23;20085;-73
2024/03/10 08:31:44;;;;;;;33.20;19.98;;;;;;;6.37;100.00;100386.56;6085779;23;20021;-73
2024/03/10 08:34:09;;;;;;;34.00;20.50;;;;;;;6.42;100.00;100383.97;6060395;23;20014;-73
2024/03/10 08:36:37;;;;;;;33.55;20.15;;;;;;;6.53;100.00;100393.69;6085923;23;20423;-72
2024/03/10 08:39:07;;;;;;;34.47;19.30;;;;;;;6.61;100.00;100392.41;6061371;23;20049;-73
2024/03/10 08:41:36;;;;;;;31.88;18.52;;;;;;;6.69;100.00;100394.63;6061799;23;20011;-72
2024/03/10 08:44:03;;;;;;;35.30;19.23;;;;;;;6.82;100.00;100389.69;6039862;23;20026;-71
2024/03/10 08:46:30;;;;;;;33.63;18.10;;;;;;;6.90;100.00;100399.06;6061962;23;20015;-73
2024/03/10 08:48:56;;;;;;;32.10;19.00;;;;;;;6.98;100.00;100397.81;6039226;23;20015;-74
2024/03/10 08:51:27;;;;;;;34.35;21.35;;;;;;;7.09;100.00;100394.16;6038437;23;20018;-74
2024/03/10 08:53:54;;;;;;;32.60;18.52;;;;;;;7.19;100.00;100388.94;6088370;23;20479;-71
2024/03/10 08:56:19;;;;;;;31.50;20.10;;;;;;;7.27;100.00;100383.13;6058068;23;20010;-72
2024/03/10 08:58:47;;;;;;;31.30;19.40;;;;;;;7.38;100.00;100387.47;6087161;23;20026;-71
2024/03/10 09:01:13;;;;;;;34.72;19.95;;;;;;;7.45;100.00;100392.56;6061478;23;20364;-75
2024/03/10 09:03:40;;;;;;;31.63;18.95;;;;;;;7.53;100.00;100389.41;6088248;23;20022;-73
2024/03/10 09:06:05;;;;;;;33.05;19.15;;;;;;;7.62;100.00;100393.19;6061446;23;20075;-73
2024/03/10 09:08:31;;;;;;;31.13;18.33;;;;;;;7.70;100.00;100383.91;6063220;23;20097;-74
2024/03/10 09:10:59;;;;;;;33.65;18.10;;;;;;;7.79;100.00;100382.34;6086736;23;20067;-72
2024/03/10 09:13:25;;;;;;;31.08;17.92;;;;;;;7.82;100.00;100381.81;6014584;23;20022;-71
2024/03/10 09:15:51;;;;;;;30.90;18.38;;;;;;;7.86;100.00;100372.25;6087934;23;20020;-73
2024/03/10 09:18:17;;;;;;;33.03;19.75;;;;;;;7.93;100.00;100370.16;6036881;23;20018;-72
2024/03/10 09:20:45;;;;;;;;;;;;;;;7.97;100.00;100364.28;6063710;23;20022;-73
2024/03/10 09:23:11;;;;;;;31.15;19.50;;;;;;;8.06;100.00;100370.72;6087171;23;19926;-72
2024/03/10 09:25:36;;;;;;;34.20;19.05;;;;;;;8.10;100.00;100367.25;6063750;23;20014;-75
2024/03/10 09:28:05;;;;;;;32.42;18.48;;;;;;;8.17;100.00;100365.16;6085547;23;20032;-74
2024/03/10 09:30:32;;;;;;;31.50;17.83;;;;;;;8.23;100.00;100363.31;6063103;23;20089;-73
2024/03/10 09:32:58;;;;;;;;;;;;;;;8.23;100.00;100365.97;6062346;23;20030;-74
2024/03/10 09:35:24;;;;;;;31.83;20.05;;;;;;;8.23;100.00;100360.63;6038386;23;19916;-73
2024/03/10 09:37:51;;;;;;;32.90;20.13;;;;;;;8.24;100.00;100356.91;6018427;23;20014;-75
2024/03/10 09:40:17;;;;;;;31.08;18.80;;;;;;;8.30;100.00;100361.19;6065992;23;20018;-73
2024/03/10 09:42:43;;;;;;;30.58;18.05;;;;;;;8.36;100.00;100356.69;6041426;23;20090;-74
2024/03/10 09:45:15;;;;;;;29.85;18.70;;;;;;;8.41;100.00;100362.84;6064621;23;20018;-74
2024/03/10 09:47:44;;;;;;;30.02;19.15;;;;;;;8.51;100.00;100358.59;6062766;23;20857;-72
2024/03/10 09:50:11;;;;;;;31.92;18.20;;;;;;;8.59;100.00;100353.53;6087832;23;20025;-74
2024/03/10 09:52:38;;;;;;;29.40;19.33;;;;;;;8.65;100.00;100357.00;6061914;23;20010;-73
2024/03/10 09:55:06;;;;;;;32.97;19.02;;;;;;;8.75;100.00;100357.03;6061549;23;20071;-74
2024/03/10 09:57:35;;;;;;;27.60;16.45;;;;;;;8.79;100.00;100352.72;6087976;23;20093;-72
2024/03/10 10:00:12;;;;;;;31.38;18.38;;;;;;;8.89;100.00;100342.06;6063217;23;20026;-75
2024/03/10 10:02:42;;;;;;;27.38;17.33;;;;;;;9.00;100.00;100348.97;6060662;23;20020;-71
2024/03/10 10:05:25;;;;;;;28.00;18.67;;;;;;;9.05;100.00;100352.72;6061469;23;20026;-72
2024/03/10 10:07:52;;;;;;;30.00;16.92;;;;;;;9.16;100.00;100354.34;6062323;23;20014;-73
2024/03/10 10:10:20;;;;;;;32.03;17.95;;;;;;;9.21;100.00;100354.31;6088439;23;20330;-72
2024/03/10 10:12:47;;;;;;;26.67;16.92;;;;;;;9.28;100.00;100344.16;6037458;23;20132;-72
2024/03/10 10:15:17;;;;;;;26.90;17.77;;;;;;;9.30;100.00;100355.38;6038299;23;20025;-73
2024/03/10 10:17:58;;;;;;;28.80;17.88;;;;;;;9.36;100.00;100350.81;6062162;23;20018;-72
2024/03/10 10:20:25;;;;;;;27.67;17.17;;;;;;;9.32;100.00;100350.56;6062962;23;20476;-72
2024/03/10 10:22:53;;;;;;;28.70;18.25;;;;;;;9.35;100.00;100350.03;6015127;23;20073;-73
2024/03/10 10:25:19;;;;;;;30.30;19.58;;;;;;;9.36;100.00;100345.47;6038053;23;20021;-73
2024/03/10 10:27:52;;;;;;;28.15;17.27;;;;;;;9.43;100.00;100341.44;6086851;23;20014;-72
2024/03/10 10:30:19;;;;;;;29.95;17.60;;;;;;;9.47;100.00;100342.50;6062752;23;20089;-73
2024/03/10 10:32:47;;;;;;;29.67;18.30;;;;;;;9.51;100.00;100342.75;6088890;23;20010;-75
2024/03/10 10:35:14;;;;;;;29.00;18.75;;;;;;;9.48;100.00;100344.13;6088285;23;20010;-74
2024/03/10 10:37:40;;;;;;;30.25;17.67;;;;;;;9.51;100.00;100335.53;6060258;23;20018;-73
2024/03/10 10:40:11;;;;;;;29.83;17.25;;;;;;;9.56;100.00;100335.53;6062584;23;20010;-73
2024/03/10 10:42:38;;;;;;;29.63;17.20;;;;;;;9.59;100.00;100334.19;6086524;23;20034;-73
2024/03/10 10:45:08;;;;;;;27.88;17.48;;;;;;;9.54;100.00;100324.28;6086794;23;20081;-74
2024/03/10 10:47:33;;;;;;;28.65;17.40;;;;;;;9.56;100.00;100322.16;6062450;23;20022;-74
2024/03/10 10:49:59;;;;;;;28.42;18.42;;;;;;;9.64;100.00;100317.31;6088857;23;20018;-75
2024/03/10 10:52:25;;;;;;;30.45;17.67;;;;;;;9.57;100.00;100315.75;6061033;23;20394;-79
2024/03/10 10:54:50;;;;;;;28.75;18.80;;;;;;;9.53;100.00;100305.84;6086704;23;20026;-75
2024/03/10 10:57:17;;;;;;;30.15;19.83;;;;;;;9.61;100.00;100304.50;6063556;23;20018;-74
2024/03/10 10:59:48;;;;;;;28.83;18.60;;;;;;;9.64;100.00;100286.03;6092379;23;20011;-75
2024/03/10 11:02:19;;;;;;;29.35;17.95;;;;;;;9.70;100.00;100287.63;6062600;23;20049;-73
2024/03/10 11:04:46;;;;;;;28.77;17.95;;;;;;;9.81;100.00;100294.50;6059677;23;20409;-73
2024/03/10 11:07:15;;;;;;;27.88;18.08;;;;;;;9.88;100.00;100288.06;6061209;23;20026;-74
2024/03/10 11:09:41;;;;;;;30.15;18.75;;;;;;;9.97;100.00;100292.56;6064453;23;20014;-73
2024/03/10 11:12:22;;;;;;;28.10;18.00;;;;;;;9.94;100.00;100282.41;6040769;23;20006;-75
2024/03/10 11:14:51;;;;;;;27.40;18.10;;;;;;;9.97;100.00;100286.41;6064954;23;20022;-73
2024/03/10 11:17:19;;;;;;;29.67;19.42;;;;;;;9.92;100.00;100289.13;6065108;23;20141;-73
2024/03/10 11:19:51;;;;;;;28.20;18.45;;;;;;;9.84;100.00;100287.81;6042179;23;20722;-75
2024/03/10 11:22:20;;;;;;;29.23;19.08;;;;;;;9.84;100.00;100282.47;6039568;23;20074;-73
2024/03/10 11:25:08;;;;;;;29.02;17.65;;;;;;;9.95;100.00;100272.50;6066029;23;20011;-73
2024/03/10 11:27:44;;;;;;;29.02;19.20;;;;;;;10.03;100.00;100269.25;6064453;23;20015;-74
2024/03/10 11:30:40;;;;;;;27.65;17.30;;;;;;;10.10;100.00;100259.84;6066495;23;20045;-74
2024/03/10 11:33:07;;;;;;;27.50;16.75;;;;;;;10.23;100.00;100255.78;6020350;23;20018;-75
2024/03/10 11:35:34;;;;;;;29.98;19.25;;;;;;;10.32;100.00;100253.31;6040594;23;20064;-73
2024/03/10 11:38:01;;;;;;;28.05;20.00;;;;;;;10.44;100.00;100243.03;6090640;23;20022;-75
2024/03/10 11:40:33;;;;;;;31.50;18.95;;;;;;;10.55;100.00;100241.84;6065732;23;20015;-78
2024/03/10 11:43:01;;;;;;;24.90;17.27;;;;;;;10.52;100.00;100242.44;6065281;23;20326;-72
2024/03/10 11:45:31;;;;;;;27.35;17.40;;;;;;;10.64;100.00;100231.34;6064960;23;20094;-72
2024/03/10 11:47:57;;;;;;;25.65;16.95;;;;;;;10.81;100.00;100230.91;6063940;23;20018;-72
2024/03/10 11:50:22;;;;;;;30.33;18.88;;;;;;;10.82;100.00;100246.69;6095217;23;20041;-74
2024/03/10 11:52:48;;;;;;;28.77;18.73;;;;;;;10.95;100.00;100234.50;6063346;23;20015;-73